Decoded Metar for EPPO (POZNAN in POLAND) (IATA:POZ) | Meteo·Mobile Aviation Weather
aviador You're here:

EPPO Decoded Metar

POZNAN in POLAND
Report Time2019-07-16 00:30:00
UTC Time2019-07-16 01:05:44
Flight Rules vfr VFR
Wind250° at 07 kt
W.Decomp.*RWY 28: 5.8 kt HW 3.9 kt LCW
Visibility9999 m
Phenomena:N/A
Clouds:Overcast 037 Hf
Expected CloudBase > 2,000 ft AGL from Temp-Dew spread
Ceiling3,700 ft
Temp15°C (ISA +1)
Dew Point10°C (72% RH)
AAT12.5°C
QNH1013 hPa
Density Alt538 ft
Elevation302 ft
Report Wrong Elevation
Raw Report
EPPO 160030Z 25007KT 9999 OVC037 15/10 Q1013=

Extra information for EPPO:More info

Metar Taf Metar & Taf Last 4 Metars F.Rules Stats Wind Profile Meteogram Temp Stats Airport Information Weather charts Add Link Nearby VenuesMetar ALERT Operation Metar Decoded Social comments